sensor_id;sensor_type;location;lat;lon;timestamp;P1;durP1;ratioP1;P2;durP2;ratioP2
27495;SDS011;14929;51.336;9.416;2022-07-29T00:01:27;0.73;;;0.73;;
27495;SDS011;14929;51.336;9.416;2022-07-29T00:03:55;1.00;;;1.00;;
27495;SDS011;14929;51.336;9.416;2022-07-29T00:06:22;0.82;;;0.80;;
27495;SDS011;14929;51.336;9.416;2022-07-29T00:08:52;1.35;;;1.25;;
27495;SDS011;14929;51.336;9.416;2022-07-29T00:11:20;1.45;;;1.02;;
27495;SDS011;14929;51.336;9.416;2022-07-29T00:13:47;0.80;;;0.80;;
27495;SDS011;14929;51.336;9.416;2022-07-29T00:16:15;1.25;;;1.15;;
27495;SDS011;14929;51.336;9.416;2022-07-29T00:18:42;1.55;;;0.90;;
27495;SDS011;14929;51.336;9.416;2022-07-29T00:21:10;0.80;;;0.80;;
27495;SDS011;14929;51.336;9.416;2022-07-29T00:23:38;0.80;;;0.80;;
27495;SDS011;14929;51.336;9.416;2022-07-29T00:26:06;1.70;;;1.05;;
27495;SDS011;14929;51.336;9.416;2022-07-29T00:28:34;0.80;;;0.80;;
27495;SDS011;14929;51.336;9.416;2022-07-29T00:31:02;0.85;;;0.85;;
27495;SDS011;14929;51.336;9.416;2022-07-29T00:33:29;1.23;;;0.90;;
27495;SDS011;14929;51.336;9.416;2022-07-29T00:35:57;2.58;;;0.90;;
27495;SDS011;14929;51.336;9.416;2022-07-29T00:38:23;1.00;;;0.90;;
27495;SDS011;14929;51.336;9.416;2022-07-29T00:40:51;1.05;;;0.95;;
27495;SDS011;14929;51.336;9.416;2022-07-29T00:43:20;2.67;;;1.38;;
27495;SDS011;14929;51.336;9.416;2022-07-29T00:45:47;1.40;;;0.95;;
27495;SDS011;14929;51.336;9.416;2022-07-29T00:48:15;1.38;;;0.82;;
27495;SDS011;14929;51.336;9.416;2022-07-29T00:50:42;1.10;;;0.70;;
27495;SDS011;14929;51.336;9.416;2022-07-29T00:53:10;0.93;;;0.70;;
27495;SDS011;14929;51.336;9.416;2022-07-29T00:55:39;0.85;;;0.70;;
27495;SDS011;14929;51.336;9.416;2022-07-29T00:58:06;0.98;;;0.98;;
27495;SDS011;14929;51.336;9.416;2022-07-29T01:00:35;2.70;;;1.08;;
27495;SDS011;14929;51.336;9.416;2022-07-29T01:03:05;0.93;;;0.80;;
27495;SDS011;14929;51.336;9.416;2022-07-29T01:05:33;1.33;;;1.23;;
27495;SDS011;14929;51.336;9.416;2022-07-29T01:08:02;0.82;;;0.82;;
27495;SDS011;14929;51.336;9.416;2022-07-29T01:10:30;1.50;;;1.40;;
27495;SDS011;14929;51.336;9.416;2022-07-29T01:12:58;1.23;;;0.85;;
27495;SDS011;14929;51.336;9.416;2022-07-29T01:15:27;0.75;;;0.75;;
27495;SDS011;14929;51.336;9.416;2022-07-29T01:17:59;1.55;;;1.00;;
27495;SDS011;14929;51.336;9.416;2022-07-29T01:20:35;1.02;;;1.02;;
27495;SDS011;14929;51.336;9.416;2022-07-29T01:23:33;1.98;;;0.98;;
27495;SDS011;14929;51.336;9.416;2022-07-29T01:26:31;1.23;;;1.13;;
27495;SDS011;14929;51.336;9.416;2022-07-29T01:29:09;0.82;;;0.82;;
27495;SDS011;14929;51.336;9.416;2022-07-29T01:31:42;2.08;;;1.30;;
27495;SDS011;14929;51.336;9.416;2022-07-29T01:34:15;2.67;;;0.98;;
27495;SDS011;14929;51.336;9.416;2022-07-29T01:36:48;0.80;;;0.80;;
27495;SDS011;14929;51.336;9.416;2022-07-29T01:39:23;1.55;;;1.15;;
27495;SDS011;14929;51.336;9.416;2022-07-29T01:41:56;0.90;;;0.82;;
27495;SDS011;14929;51.336;9.416;2022-07-29T01:44:34;0.93;;;0.93;;
27495;SDS011;14929;51.336;9.416;2022-07-29T01:47:08;1.73;;;0.90;;
27495;SDS011;14929;51.336;9.416;2022-07-29T01:49:41;0.80;;;0.80;;
27495;SDS011;14929;51.336;9.416;2022-07-29T01:52:13;1.85;;;0.90;;
27495;SDS011;14929;51.336;9.416;2022-07-29T01:54:48;0.95;;;0.95;;
27495;SDS011;14929;51.336;9.416;2022-07-29T01:57:21;0.82;;;0.82;;
27495;SDS011;14929;51.336;9.416;2022-07-29T01:59:56;0.90;;;0.90;;
27495;SDS011;14929;51.336;9.416;2022-07-29T02:02:25;1.10;;;1.00;;
27495;SDS011;14929;51.336;9.416;2022-07-29T02:04:54;0.80;;;0.80;;
27495;SDS011;14929;51.336;9.416;2022-07-29T02:07:23;0.65;;;0.63;;
27495;SDS011;14929;51.336;9.416;2022-07-29T02:09:52;1.15;;;0.88;;
27495;SDS011;14929;51.336;9.416;2022-07-29T02:12:20;2.22;;;0.90;;
27495;SDS011;14929;51.336;9.416;2022-07-29T02:14:50;1.55;;;1.00;;
27495;SDS011;14929;51.336;9.416;2022-07-29T02:17:22;0.80;;;0.80;;
27495;SDS011;14929;51.336;9.416;2022-07-29T02:19:51;0.77;;;0.73;;
27495;SDS011;14929;51.336;9.416;2022-07-29T02:22:20;1.98;;;1.23;;
27495;SDS011;14929;51.336;9.416;2022-07-29T02:24:48;0.80;;;0.80;;
27495;SDS011;14929;51.336;9.416;2022-07-29T02:27:18;0.70;;;0.70;;
27495;SDS011;14929;51.336;9.416;2022-07-29T02:29:46;0.85;;;0.85;;
27495;SDS011;14929;51.336;9.416;2022-07-29T02:32:14;0.77;;;0.70;;
27495;SDS011;14929;51.336;9.416;2022-07-29T02:34:44;0.80;;;0.80;;
27495;SDS011;14929;51.336;9.416;2022-07-29T02:37:13;0.90;;;0.90;;
27495;SDS011;14929;51.336;9.416;2022-07-29T02:39:43;0.98;;;0.82;;
27495;SDS011;14929;51.336;9.416;2022-07-29T02:42:13;0.90;;;0.90;;
27495;SDS011;14929;51.336;9.416;2022-07-29T02:44:42;0.82;;;0.82;;
27495;SDS011;14929;51.336;9.416;2022-07-29T02:47:12;2.55;;;1.00;;
27495;SDS011;14929;51.336;9.416;2022-07-29T02:49:47;0.90;;;0.90;;
27495;SDS011;14929;51.336;9.416;2022-07-29T02:52:19;1.73;;;0.93;;
27495;SDS011;14929;51.336;9.416;2022-07-29T02:54:54;1.27;;;0.90;;
27495;SDS011;14929;51.336;9.416;2022-07-29T02:57:28;0.90;;;0.90;;
27495;SDS011;14929;51.336;9.416;2022-07-29T03:00:01;0.82;;;0.82;;
27495;SDS011;14929;51.336;9.416;2022-07-29T03:02:34;0.85;;;0.80;;
27495;SDS011;14929;51.336;9.416;2022-07-29T03:05:06;0.70;;;0.70;;
27495;SDS011;14929;51.336;9.416;2022-07-29T03:07:37;0.80;;;0.80;;
27495;SDS011;14929;51.336;9.416;2022-07-29T03:10:06;0.80;;;0.80;;
27495;SDS011;14929;51.336;9.416;2022-07-29T03:12:35;0.95;;;0.82;;
27495;SDS011;14929;51.336;9.416;2022-07-29T03:15:03;1.23;;;1.23;;
27495;SDS011;14929;51.336;9.416;2022-07-29T03:17:32;1.10;;;1.05;;
27495;SDS011;14929;51.336;9.416;2022-07-29T03:20:00;0.80;;;0.80;;
27495;SDS011;14929;51.336;9.416;2022-07-29T03:22:30;0.70;;;0.70;;
27495;SDS011;14929;51.336;9.416;2022-07-29T03:24:57;0.85;;;0.80;;
27495;SDS011;14929;51.336;9.416;2022-07-29T03:27:33;1.95;;;1.00;;
27495;SDS011;14929;51.336;9.416;2022-07-29T03:30:01;2.47;;;1.25;;
27495;SDS011;14929;51.336;9.416;2022-07-29T03:32:29;1.75;;;0.90;;
27495;SDS011;14929;51.336;9.416;2022-07-29T03:34:56;0.95;;;0.95;;
27495;SDS011;14929;51.336;9.416;2022-07-29T03:37:24;1.38;;;0.70;;
27495;SDS011;14929;51.336;9.416;2022-07-29T03:39:53;0.88;;;0.82;;
27495;SDS011;14929;51.336;9.416;2022-07-29T03:44:54;0.80;;;0.80;;
27495;SDS011;14929;51.336;9.416;2022-07-29T03:47:24;0.88;;;0.77;;
27495;SDS011;14929;51.336;9.416;2022-07-29T03:49:55;0.80;;;0.80;;
27495;SDS011;14929;51.336;9.416;2022-07-29T03:52:28;1.00;;;1.00;;
27495;SDS011;14929;51.336;9.416;2022-07-29T03:54:57;1.05;;;0.93;;
27495;SDS011;14929;51.336;9.416;2022-07-29T03:57:25;0.90;;;0.80;;
27495;SDS011;14929;51.336;9.416;2022-07-29T03:59:54;0.77;;;0.77;;
27495;SDS011;14929;51.336;9.416;2022-07-29T04:02:22;0.90;;;0.90;;
27495;SDS011;14929;51.336;9.416;2022-07-29T04:04:50;1.00;;;0.88;;
27495;SDS011;14929;51.336;9.416;2022-07-29T04:07:18;0.75;;;0.70;;
27495;SDS011;14929;51.336;9.416;2022-07-29T04:09:46;1.00;;;0.70;;
27495;SDS011;14929;51.336;9.416;2022-07-29T04:12:15;0.80;;;0.80;;
27495;SDS011;14929;51.336;9.416;2022-07-29T04:14:42;1.25;;;1.15;;
27495;SDS011;14929;51.336;9.416;2022-07-29T04:17:10;1.55;;;1.13;;
27495;SDS011;14929;51.336;9.416;2022-07-29T04:19:37;1.75;;;0.95;;
27495;SDS011;14929;51.336;9.416;2022-07-29T04:22:05;1.13;;;1.08;;
27495;SDS011;14929;51.336;9.416;2022-07-29T04:24:32;1.00;;;1.00;;
27495;SDS011;14929;51.336;9.416;2022-07-29T04:27:00;1.20;;;1.10;;
27495;SDS011;14929;51.336;9.416;2022-07-29T04:29:29;1.20;;;1.10;;
27495;SDS011;14929;51.336;9.416;2022-07-29T04:31:57;1.00;;;0.98;;
27495;SDS011;14929;51.336;9.416;2022-07-29T04:34:24;1.77;;;1.30;;
27495;SDS011;14929;51.336;9.416;2022-07-29T04:36:52;1.73;;;1.20;;
27495;SDS011;14929;51.336;9.416;2022-07-29T04:39:19;1.00;;;1.00;;
27495;SDS011;14929;51.336;9.416;2022-07-29T04:41:47;0.70;;;0.70;;
27495;SDS011;14929;51.336;9.416;2022-07-29T04:44:15;1.30;;;1.20;;
27495;SDS011;14929;51.336;9.416;2022-07-29T04:46:44;0.93;;;0.90;;
27495;SDS011;14929;51.336;9.416;2022-07-29T04:49:12;0.95;;;0.95;;
27495;SDS011;14929;51.336;9.416;2022-07-29T04:51:40;0.90;;;0.88;;
27495;SDS011;14929;51.336;9.416;2022-07-29T04:54:07;0.90;;;0.90;;
27495;SDS011;14929;51.336;9.416;2022-07-29T04:56:35;2.40;;;1.00;;
27495;SDS011;14929;51.336;9.416;2022-07-29T04:59:02;1.88;;;1.10;;
27495;SDS011;14929;51.336;9.416;2022-07-29T05:01:30;0.77;;;0.77;;
27495;SDS011;14929;51.336;9.416;2022-07-29T05:03:59;1.33;;;1.05;;
27495;SDS011;14929;51.336;9.416;2022-07-29T05:06:26;2.28;;;1.00;;
27495;SDS011;14929;51.336;9.416;2022-07-29T05:08:54;1.15;;;0.80;;
27495;SDS011;14929;51.336;9.416;2022-07-29T05:11:21;1.38;;;0.85;;
27495;SDS011;14929;51.336;9.416;2022-07-29T05:13:49;1.27;;;1.20;;
27495;SDS011;14929;51.336;9.416;2022-07-29T05:16:16;1.23;;;1.05;;
27495;SDS011;14929;51.336;9.416;2022-07-29T05:18:44;1.83;;;1.38;;
27495;SDS011;14929;51.336;9.416;2022-07-29T05:21:13;1.35;;;0.90;;
27495;SDS011;14929;51.336;9.416;2022-07-29T05:23:40;0.90;;;0.90;;
27495;SDS011;14929;51.336;9.416;2022-07-29T05:26:08;1.38;;;0.70;;
27495;SDS011;14929;51.336;9.416;2022-07-29T05:28:35;1.02;;;0.93;;
27495;SDS011;14929;51.336;9.416;2022-07-29T05:31:03;1.00;;;1.00;;
27495;SDS011;14929;51.336;9.416;2022-07-29T05:33:30;1.13;;;1.00;;
27495;SDS011;14929;51.336;9.416;2022-07-29T05:35:58;3.33;;;1.00;;
27495;SDS011;14929;51.336;9.416;2022-07-29T05:38:27;1.75;;;1.08;;
27495;SDS011;14929;51.336;9.416;2022-07-29T05:40:56;1.42;;;1.25;;
27495;SDS011;14929;51.336;9.416;2022-07-29T05:43:24;1.30;;;1.10;;
27495;SDS011;14929;51.336;9.416;2022-07-29T05:45:52;0.70;;;0.70;;
27495;SDS011;14929;51.336;9.416;2022-07-29T05:48:20;1.13;;;1.05;;
27495;SDS011;14929;51.336;9.416;2022-07-29T05:50:47;0.63;;;0.63;;
27495;SDS011;14929;51.336;9.416;2022-07-29T05:53:15;0.80;;;0.80;;
27495;SDS011;14929;51.336;9.416;2022-07-29T05:55:44;1.33;;;0.90;;
27495;SDS011;14929;51.336;9.416;2022-07-29T05:58:11;1.17;;;1.08;;
27495;SDS011;14929;51.336;9.416;2022-07-29T06:00:39;0.95;;;0.95;;
27495;SDS011;14929;51.336;9.416;2022-07-29T06:03:06;0.82;;;0.82;;
27495;SDS011;14929;51.336;9.416;2022-07-29T06:05:34;1.30;;;1.30;;
27495;SDS011;14929;51.336;9.416;2022-07-29T06:08:01;1.15;;;1.05;;
27495;SDS011;14929;51.336;9.416;2022-07-29T06:10:30;2.40;;;1.02;;
27495;SDS011;14929;51.336;9.416;2022-07-29T06:12:59;1.00;;;0.80;;
27495;SDS011;14929;51.336;9.416;2022-07-29T06:15:27;1.00;;;1.00;;
27495;SDS011;14929;51.336;9.416;2022-07-29T06:17:54;1.33;;;1.08;;
27495;SDS011;14929;51.336;9.416;2022-07-29T06:20:22;1.00;;;1.00;;
27495;SDS011;14929;51.336;9.416;2022-07-29T06:22:49;0.70;;;0.70;;
27495;SDS011;14929;51.336;9.416;2022-07-29T06:25:17;0.90;;;0.90;;
27495;SDS011;14929;51.336;9.416;2022-07-29T06:27:44;1.00;;;0.93;;
27495;SDS011;14929;51.336;9.416;2022-07-29T06:30:13;0.70;;;0.70;;
27495;SDS011;14929;51.336;9.416;2022-07-29T06:32:41;1.38;;;1.27;;
27495;SDS011;14929;51.336;9.416;2022-07-29T06:35:09;0.82;;;0.82;;
27495;SDS011;14929;51.336;9.416;2022-07-29T06:37:36;1.02;;;1.00;;
27495;SDS011;14929;51.336;9.416;2022-07-29T06:40:04;0.70;;;0.70;;
27495;SDS011;14929;51.336;9.416;2022-07-29T06:42:50;0.90;;;0.90;;
27495;SDS011;14929;51.336;9.416;2022-07-29T06:45:19;0.80;;;0.80;;
27495;SDS011;14929;51.336;9.416;2022-07-29T06:47:47;0.80;;;0.80;;
27495;SDS011;14929;51.336;9.416;2022-07-29T06:50:14;1.98;;;0.70;;
27495;SDS011;14929;51.336;9.416;2022-07-29T06:52:42;1.08;;;1.08;;
27495;SDS011;14929;51.336;9.416;2022-07-29T06:55:10;0.93;;;0.93;;
27495;SDS011;14929;51.336;9.416;2022-07-29T06:57:37;0.90;;;0.90;;
27495;SDS011;14929;51.336;9.416;2022-07-29T07:00:06;1.00;;;0.90;;
27495;SDS011;14929;51.336;9.416;2022-07-29T07:02:36;0.88;;;0.88;;
27495;SDS011;14929;51.336;9.416;2022-07-29T07:05:04;1.05;;;0.85;;
27495;SDS011;14929;51.336;9.416;2022-07-29T07:07:33;1.60;;;1.05;;
27495;SDS011;14929;51.336;9.416;2022-07-29T07:10:00;0.85;;;0.85;;
27495;SDS011;14929;51.336;9.416;2022-07-29T07:12:28;0.65;;;0.65;;
27495;SDS011;14929;51.336;9.416;2022-07-29T07:14:56;3.75;;;1.40;;
27495;SDS011;14929;51.336;9.416;2022-07-29T07:17:23;0.95;;;0.90;;
27495;SDS011;14929;51.336;9.416;2022-07-29T07:19:52;1.08;;;1.02;;
27495;SDS011;14929;51.336;9.416;2022-07-29T07:22:20;1.33;;;0.90;;
27495;SDS011;14929;51.336;9.416;2022-07-29T07:24:47;0.80;;;0.80;;
27495;SDS011;14929;51.336;9.416;2022-07-29T07:27:15;0.73;;;0.73;;
27495;SDS011;14929;51.336;9.416;2022-07-29T07:29:42;3.47;;;1.05;;
27495;SDS011;14929;51.336;9.416;2022-07-29T07:32:10;5.97;;;1.42;;
27495;SDS011;14929;51.336;9.416;2022-07-29T07:34:38;3.13;;;1.92;;
27495;SDS011;14929;51.336;9.416;2022-07-29T07:37:07;23.05;;;4.20;;
27495;SDS011;14929;51.336;9.416;2022-07-29T07:39:34;14.82;;;5.30;;
27495;SDS011;14929;51.336;9.416;2022-07-29T07:42:02;4.57;;;2.08;;
27495;SDS011;14929;51.336;9.416;2022-07-29T07:44:30;1.25;;;1.10;;
27495;SDS011;14929;51.336;9.416;2022-07-29T07:46:57;3.50;;;1.83;;
27495;SDS011;14929;51.336;9.416;2022-07-29T07:49:25;4.32;;;1.70;;
27495;SDS011;14929;51.336;9.416;2022-07-29T07:51:52;1.20;;;1.10;;
27495;SDS011;14929;51.336;9.416;2022-07-29T07:54:22;1.17;;;1.05;;
27495;SDS011;14929;51.336;9.416;2022-07-29T07:56:53;1.90;;;0.90;;
27495;SDS011;14929;51.336;9.416;2022-07-29T07:59:27;0.65;;;0.65;;
27495;SDS011;14929;51.336;9.416;2022-07-29T08:01:55;0.85;;;0.85;;
27495;SDS011;14929;51.336;9.416;2022-07-29T08:04:23;0.52;;;0.52;;
27495;SDS011;14929;51.336;9.416;2022-07-29T08:06:50;1.02;;;0.73;;
27495;SDS011;14929;51.336;9.416;2022-07-29T08:09:19;0.70;;;0.70;;
27495;SDS011;14929;51.336;9.416;2022-07-29T08:11:48;0.80;;;0.80;;
27495;SDS011;14929;51.336;9.416;2022-07-29T08:14:19;1.08;;;1.00;;
27495;SDS011;14929;51.336;9.416;2022-07-29T08:16:47;1.30;;;1.20;;
27495;SDS011;14929;51.336;9.416;2022-07-29T08:19:15;1.42;;;1.20;;
27495;SDS011;14929;51.336;9.416;2022-07-29T08:21:43;0.70;;;0.70;;
27495;SDS011;14929;51.336;9.416;2022-07-29T08:24:10;0.90;;;0.90;;
27495;SDS011;14929;51.336;9.416;2022-07-29T08:26:57;0.82;;;0.82;;
27495;SDS011;14929;51.336;9.416;2022-07-29T08:29:24;1.40;;;1.30;;
27495;SDS011;14929;51.336;9.416;2022-07-29T08:31:52;2.42;;;1.30;;
27495;SDS011;14929;51.336;9.416;2022-07-29T08:34:19;1.13;;;1.10;;
27495;SDS011;14929;51.336;9.416;2022-07-29T08:36:47;1.45;;;1.15;;
27495;SDS011;14929;51.336;9.416;2022-07-29T08:39:14;1.00;;;1.00;;
27495;SDS011;14929;51.336;9.416;2022-07-29T08:41:42;1.88;;;1.55;;
27495;SDS011;14929;51.336;9.416;2022-07-29T08:44:11;1.52;;;1.05;;
27495;SDS011;14929;51.336;9.416;2022-07-29T08:46:39;0.80;;;0.80;;
27495;SDS011;14929;51.336;9.416;2022-07-29T08:49:06;0.93;;;0.82;;
27495;SDS011;14929;51.336;9.416;2022-07-29T08:51:34;1.10;;;1.00;;
27495;SDS011;14929;51.336;9.416;2022-07-29T08:54:03;0.90;;;0.90;;
27495;SDS011;14929;51.336;9.416;2022-07-29T08:56:30;1.00;;;1.00;;
27495;SDS011;14929;51.336;9.416;2022-07-29T08:58:59;1.45;;;1.27;;
27495;SDS011;14929;51.336;9.416;2022-07-29T09:01:31;1.15;;;1.15;;
27495;SDS011;14929;51.336;9.416;2022-07-29T09:04:01;1.58;;;1.33;;
27495;SDS011;14929;51.336;9.416;2022-07-29T09:06:34;0.82;;;0.82;;
27495;SDS011;14929;51.336;9.416;2022-07-29T09:09:03;1.73;;;1.60;;
27495;SDS011;14929;51.336;9.416;2022-07-29T09:11:32;0.75;;;0.73;;
27495;SDS011;14929;51.336;9.416;2022-07-29T09:13:59;1.83;;;1.20;;
27495;SDS011;14929;51.336;9.416;2022-07-29T09:16:40;1.55;;;1.20;;
27495;SDS011;14929;51.336;9.416;2022-07-29T09:19:19;1.40;;;1.30;;
27495;SDS011;14929;51.336;9.416;2022-07-29T09:21:48;1.45;;;1.35;;
27495;SDS011;14929;51.336;9.416;2022-07-29T09:24:26;1.35;;;1.25;;
27495;SDS011;14929;51.336;9.416;2022-07-29T09:27:19;0.93;;;0.93;;
27495;SDS011;14929;51.336;9.416;2022-07-29T09:29:58;0.68;;;0.68;;
27495;SDS011;14929;51.336;9.416;2022-07-29T09:32:28;1.00;;;1.00;;
27495;SDS011;14929;51.336;9.416;2022-07-29T09:35:14;2.33;;;1.02;;
27495;SDS011;14929;51.336;9.416;2022-07-29T09:37:43;1.10;;;1.00;;
27495;SDS011;14929;51.336;9.416;2022-07-29T09:40:12;1.00;;;0.88;;
27495;SDS011;14929;51.336;9.416;2022-07-29T09:42:41;1.45;;;1.30;;
27495;SDS011;14929;51.336;9.416;2022-07-29T09:45:10;1.70;;;1.48;;
27495;SDS011;14929;51.336;9.416;2022-07-29T09:47:43;1.45;;;1.35;;
27495;SDS011;14929;51.336;9.416;2022-07-29T09:50:14;1.23;;;1.20;;
27495;SDS011;14929;51.336;9.416;2022-07-29T09:52:46;1.63;;;1.52;;
27495;SDS011;14929;51.336;9.416;2022-07-29T09:55:15;0.93;;;0.93;;
27495;SDS011;14929;51.336;9.416;2022-07-29T09:57:43;2.05;;;1.48;;
27495;SDS011;14929;51.336;9.416;2022-07-29T10:00:12;1.50;;;1.40;;
27495;SDS011;14929;51.336;9.416;2022-07-29T10:02:44;1.02;;;1.00;;
27495;SDS011;14929;51.336;9.416;2022-07-29T10:05:17;1.27;;;1.17;;
27495;SDS011;14929;51.336;9.416;2022-07-29T10:07:48;2.53;;;1.90;;
27495;SDS011;14929;51.336;9.416;2022-07-29T10:10:20;1.45;;;1.25;;
27495;SDS011;14929;51.336;9.416;2022-07-29T10:12:51;1.20;;;1.10;;
27495;SDS011;14929;51.336;9.416;2022-07-29T10:15:21;1.27;;;1.13;;
27495;SDS011;14929;51.336;9.416;2022-07-29T10:17:52;1.48;;;1.30;;
27495;SDS011;14929;51.336;9.416;2022-07-29T10:20:21;1.75;;;1.60;;
27495;SDS011;14929;51.336;9.416;2022-07-29T10:22:50;1.33;;;1.23;;
27495;SDS011;14929;51.336;9.416;2022-07-29T10:25:19;2.35;;;1.35;;
27495;SDS011;14929;51.336;9.416;2022-07-29T10:27:47;2.05;;;1.38;;
27495;SDS011;14929;51.336;9.416;2022-07-29T10:30:17;1.20;;;0.90;;
27495;SDS011;14929;51.336;9.416;2022-07-29T10:32:50;2.35;;;1.20;;
27495;SDS011;14929;51.336;9.416;2022-07-29T10:35:47;1.48;;;1.20;;
27495;SDS011;14929;51.336;9.416;2022-07-29T10:38:42;1.10;;;1.00;;
27495;SDS011;14929;51.336;9.416;2022-07-29T10:41:19;1.48;;;1.20;;
27495;SDS011;14929;51.336;9.416;2022-07-29T10:44:01;3.55;;;1.30;;
27495;SDS011;14929;51.336;9.416;2022-07-29T10:46:34;1.42;;;1.33;;
27495;SDS011;14929;51.336;9.416;2022-07-29T10:49:10;1.65;;;1.25;;
27495;SDS011;14929;51.336;9.416;2022-07-29T10:54:40;1.33;;;1.23;;
27495;SDS011;14929;51.336;9.416;2022-07-29T10:57:24;1.50;;;1.40;;
27495;SDS011;14929;51.336;9.416;2022-07-29T11:02:57;1.15;;;1.08;;
27495;SDS011;14929;51.336;9.416;2022-07-29T11:05:27;0.82;;;0.80;;
27495;SDS011;14929;51.336;9.416;2022-07-29T11:10:51;1.58;;;1.30;;
27495;SDS011;14929;51.336;9.416;2022-07-29T11:13:50;1.48;;;1.40;;
27495;SDS011;14929;51.336;9.416;2022-07-29T11:16:20;2.03;;;1.23;;
27495;SDS011;14929;51.336;9.416;2022-07-29T11:21:49;1.60;;;1.38;;
27495;SDS011;14929;51.336;9.416;2022-07-29T11:24:18;1.30;;;1.20;;
27495;SDS011;14929;51.336;9.416;2022-07-29T11:27:07;1.08;;;1.08;;
27495;SDS011;14929;51.336;9.416;2022-07-29T11:29:53;1.55;;;1.45;;
27495;SDS011;14929;51.336;9.416;2022-07-29T11:32:35;1.17;;;1.10;;
27495;SDS011;14929;51.336;9.416;2022-07-29T11:35:13;1.00;;;1.00;;
27495;SDS011;14929;51.336;9.416;2022-07-29T11:37:44;1.08;;;1.08;;
27495;SDS011;14929;51.336;9.416;2022-07-29T11:40:13;1.83;;;1.60;;
27495;SDS011;14929;51.336;9.416;2022-07-29T11:42:47;1.73;;;1.63;;
27495;SDS011;14929;51.336;9.416;2022-07-29T11:45:21;1.30;;;1.20;;
27495;SDS011;14929;51.336;9.416;2022-07-29T11:47:57;1.30;;;1.20;;
27495;SDS011;14929;51.336;9.416;2022-07-29T11:50:29;1.60;;;1.50;;
27495;SDS011;14929;51.336;9.416;2022-07-29T11:53:01;1.30;;;1.20;;
27495;SDS011;14929;51.336;9.416;2022-07-29T11:55:44;1.55;;;1.45;;
27495;SDS011;14929;51.336;9.416;2022-07-29T11:58:15;2.08;;;1.50;;
27495;SDS011;14929;51.336;9.416;2022-07-29T12:00:48;1.75;;;1.65;;
27495;SDS011;14929;51.336;9.416;2022-07-29T12:03:23;1.50;;;1.40;;
27495;SDS011;14929;51.336;9.416;2022-07-29T12:05:52;1.60;;;1.50;;
27495;SDS011;14929;51.336;9.416;2022-07-29T12:08:21;1.65;;;1.55;;
27495;SDS011;14929;51.336;9.416;2022-07-29T12:10:51;1.60;;;1.50;;
27495;SDS011;14929;51.336;9.416;2022-07-29T12:13:20;1.40;;;1.30;;
27495;SDS011;14929;51.336;9.416;2022-07-29T12:15:52;1.17;;;1.17;;
27495;SDS011;14929;51.336;9.416;2022-07-29T12:18:22;1.05;;;1.05;;
27495;SDS011;14929;51.336;9.416;2022-07-29T12:20:56;1.55;;;1.40;;
27495;SDS011;14929;51.336;9.416;2022-07-29T12:23:26;1.13;;;1.02;;
27495;SDS011;14929;51.336;9.416;2022-07-29T12:25:54;1.27;;;1.17;;
27495;SDS011;14929;51.336;9.416;2022-07-29T12:28:21;1.90;;;1.58;;
27495;SDS011;14929;51.336;9.416;2022-07-29T12:30:49;1.52;;;1.42;;
27495;SDS011;14929;51.336;9.416;2022-07-29T12:33:19;1.40;;;1.30;;
27495;SDS011;14929;51.336;9.416;2022-07-29T12:35:49;1.35;;;1.25;;
27495;SDS011;14929;51.336;9.416;2022-07-29T12:38:19;1.38;;;1.20;;
27495;SDS011;14929;51.336;9.416;2022-07-29T12:40:49;1.35;;;1.25;;
27495;SDS011;14929;51.336;9.416;2022-07-29T12:43:18;1.23;;;1.20;;
27495;SDS011;14929;51.336;9.416;2022-07-29T12:45:48;1.60;;;1.48;;
27495;SDS011;14929;51.336;9.416;2022-07-29T12:48:22;1.55;;;1.48;;
27495;SDS011;14929;51.336;9.416;2022-07-29T12:51:01;1.38;;;1.27;;
27495;SDS011;14929;51.336;9.416;2022-07-29T12:53:31;1.80;;;1.70;;
27495;SDS011;14929;51.336;9.416;2022-07-29T12:56:00;1.80;;;1.70;;
27495;SDS011;14929;51.336;9.416;2022-07-29T12:58:29;1.80;;;1.50;;
27495;SDS011;14929;51.336;9.416;2022-07-29T13:01:01;2.15;;;1.67;;
27495;SDS011;14929;51.336;9.416;2022-07-29T13:03:47;1.27;;;1.17;;
27495;SDS011;14929;51.336;9.416;2022-07-29T13:06:27;1.40;;;1.30;;
27495;SDS011;14929;51.336;9.416;2022-07-29T13:09:00;1.50;;;1.40;;
27495;SDS011;14929;51.336;9.416;2022-07-29T13:11:32;2.00;;;1.73;;
27495;SDS011;14929;51.336;9.416;2022-07-29T13:14:00;1.80;;;1.70;;
27495;SDS011;14929;51.336;9.416;2022-07-29T13:16:28;1.75;;;1.65;;
27495;SDS011;14929;51.336;9.416;2022-07-29T13:19:05;1.85;;;1.70;;
27495;SDS011;14929;51.336;9.416;2022-07-29T13:21:36;2.05;;;1.95;;
27495;SDS011;14929;51.336;9.416;2022-07-29T13:24:05;1.27;;;1.17;;
27495;SDS011;14929;51.336;9.416;2022-07-29T13:26:36;1.92;;;1.67;;
27495;SDS011;14929;51.336;9.416;2022-07-29T13:29:15;1.95;;;1.50;;
27495;SDS011;14929;51.336;9.416;2022-07-29T13:31:43;2.58;;;1.90;;
27495;SDS011;14929;51.336;9.416;2022-07-29T13:34:11;2.85;;;1.60;;
27495;SDS011;14929;51.336;9.416;2022-07-29T13:36:40;2.30;;;2.10;;
27495;SDS011;14929;51.336;9.416;2022-07-29T13:39:08;1.70;;;1.60;;
27495;SDS011;14929;51.336;9.416;2022-07-29T13:41:37;2.00;;;1.80;;
27495;SDS011;14929;51.336;9.416;2022-07-29T13:44:05;1.70;;;1.60;;
27495;SDS011;14929;51.336;9.416;2022-07-29T13:46:32;1.55;;;1.45;;
27495;SDS011;14929;51.336;9.416;2022-07-29T13:49:00;1.77;;;1.67;;
27495;SDS011;14929;51.336;9.416;2022-07-29T13:51:31;1.80;;;1.70;;
27495;SDS011;14929;51.336;9.416;2022-07-29T13:53:59;1.60;;;1.50;;
27495;SDS011;14929;51.336;9.416;2022-07-29T13:56:26;2.65;;;1.70;;
27495;SDS011;14929;51.336;9.416;2022-07-29T13:58:55;1.35;;;1.25;;
27495;SDS011;14929;51.336;9.416;2022-07-29T14:01:23;1.50;;;1.40;;
27495;SDS011;14929;51.336;9.416;2022-07-29T14:03:52;3.08;;;1.50;;
27495;SDS011;14929;51.336;9.416;2022-07-29T14:06:20;1.70;;;1.60;;
27495;SDS011;14929;51.336;9.416;2022-07-29T14:08:48;2.22;;;1.83;;
27495;SDS011;14929;51.336;9.416;2022-07-29T14:11:15;1.70;;;1.60;;
27495;SDS011;14929;51.336;9.416;2022-07-29T14:13:44;1.95;;;1.58;;
27495;SDS011;14929;51.336;9.416;2022-07-29T14:16:13;1.52;;;1.42;;
27495;SDS011;14929;51.336;9.416;2022-07-29T14:18:40;1.73;;;1.63;;
27495;SDS011;14929;51.336;9.416;2022-07-29T14:21:08;1.25;;;1.20;;
27495;SDS011;14929;51.336;9.416;2022-07-29T14:23:36;1.00;;;1.00;;
27495;SDS011;14929;51.336;9.416;2022-07-29T14:26:04;1.40;;;1.30;;
27495;SDS011;14929;51.336;9.416;2022-07-29T14:28:31;1.40;;;1.30;;
27495;SDS011;14929;51.336;9.416;2022-07-29T14:30:59;1.70;;;1.60;;
27495;SDS011;14929;51.336;9.416;2022-07-29T14:33:28;1.95;;;1.77;;
27495;SDS011;14929;51.336;9.416;2022-07-29T14:35:55;1.60;;;1.50;;
27495;SDS011;14929;51.336;9.416;2022-07-29T14:38:23;1.60;;;1.50;;
27495;SDS011;14929;51.336;9.416;2022-07-29T14:40:50;1.73;;;1.63;;
27495;SDS011;14929;51.336;9.416;2022-07-29T14:43:18;1.95;;;1.83;;
27495;SDS011;14929;51.336;9.416;2022-07-29T14:45:46;1.80;;;1.70;;
27495;SDS011;14929;51.336;9.416;2022-07-29T14:48:13;1.98;;;1.88;;
27495;SDS011;14929;51.336;9.416;2022-07-29T14:50:42;1.75;;;1.65;;
27495;SDS011;14929;51.336;9.416;2022-07-29T14:53:10;1.85;;;1.70;;
27495;SDS011;14929;51.336;9.416;2022-07-29T14:55:38;1.63;;;1.52;;
27495;SDS011;14929;51.336;9.416;2022-07-29T14:58:09;1.52;;;1.50;;
27495;SDS011;14929;51.336;9.416;2022-07-29T15:00:39;1.48;;;1.38;;
27495;SDS011;14929;51.336;9.416;2022-07-29T15:03:07;1.25;;;1.25;;
27495;SDS011;14929;51.336;9.416;2022-07-29T15:05:35;2.42;;;1.73;;
27495;SDS011;14929;51.336;9.416;2022-07-29T15:08:04;3.35;;;1.83;;
27495;SDS011;14929;51.336;9.416;2022-07-29T15:10:33;2.35;;;2.15;;
27495;SDS011;14929;51.336;9.416;2022-07-29T15:13:01;2.10;;;1.75;;
27495;SDS011;14929;51.336;9.416;2022-07-29T15:15:29;1.65;;;1.55;;
27495;SDS011;14929;51.336;9.416;2022-07-29T15:17:57;2.03;;;1.92;;
27495;SDS011;14929;51.336;9.416;2022-07-29T15:20:24;1.90;;;1.80;;